sensor_id;sensor_type;location;lat;lon;timestamp;P1;durP1;ratioP1;P2;durP2;ratioP2
20697;SDS011;10508;50.956;4.640;2023-08-30T00:01:30;6.72;;;2.90;;
20697;SDS011;10508;50.956;4.640;2023-08-30T00:03:58;5.15;;;2.88;;
20697;SDS011;10508;50.956;4.640;2023-08-30T00:06:25;6.07;;;3.03;;
20697;SDS011;10508;50.956;4.640;2023-08-30T00:08:53;8.15;;;2.72;;
20697;SDS011;10508;50.956;4.640;2023-08-30T00:11:22;9.43;;;3.40;;
20697;SDS011;10508;50.956;4.640;2023-08-30T00:13:50;5.03;;;3.08;;
20697;SDS011;10508;50.956;4.640;2023-08-30T00:16:17;6.50;;;2.60;;
20697;SDS011;10508;50.956;4.640;2023-08-30T00:18:45;8.43;;;3.17;;
20697;SDS011;10508;50.956;4.640;2023-08-30T00:21:13;4.38;;;2.90;;
20697;SDS011;10508;50.956;4.640;2023-08-30T00:23:41;7.50;;;2.78;;
20697;SDS011;10508;50.956;4.640;2023-08-30T00:26:09;5.28;;;3.22;;
20697;SDS011;10508;50.956;4.640;2023-08-30T00:28:36;5.72;;;3.22;;
20697;SDS011;10508;50.956;4.640;2023-08-30T00:31:04;6.05;;;3.03;;
20697;SDS011;10508;50.956;4.640;2023-08-30T00:33:32;7.40;;;3.35;;
20697;SDS011;10508;50.956;4.640;2023-08-30T00:36:00;8.00;;;3.63;;
20697;SDS011;10508;50.956;4.640;2023-08-30T00:38:27;11.27;;;5.32;;
20697;SDS011;10508;50.956;4.640;2023-08-30T00:40:55;7.13;;;3.53;;
20697;SDS011;10508;50.956;4.640;2023-08-30T00:43:23;6.07;;;3.70;;
20697;SDS011;10508;50.956;4.640;2023-08-30T00:45:50;8.15;;;3.25;;
20697;SDS011;10508;50.956;4.640;2023-08-30T00:48:19;4.93;;;2.90;;
20697;SDS011;10508;50.956;4.640;2023-08-30T00:50:47;7.93;;;3.65;;
20697;SDS011;10508;50.956;4.640;2023-08-30T00:53:15;7.85;;;3.35;;
20697;SDS011;10508;50.956;4.640;2023-08-30T00:55:43;8.32;;;3.85;;
20697;SDS011;10508;50.956;4.640;2023-08-30T00:58:11;5.85;;;3.80;;
20697;SDS011;10508;50.956;4.640;2023-08-30T01:00:39;6.05;;;3.65;;
20697;SDS011;10508;50.956;4.640;2023-08-30T01:03:07;8.57;;;3.90;;
20697;SDS011;10508;50.956;4.640;2023-08-30T01:05:34;5.93;;;3.55;;
20697;SDS011;10508;50.956;4.640;2023-08-30T01:08:02;7.50;;;3.55;;
20697;SDS011;10508;50.956;4.640;2023-08-30T01:13:18;6.15;;;3.42;;
20697;SDS011;10508;50.956;4.640;2023-08-30T01:15:47;5.30;;;3.40;;
20697;SDS011;10508;50.956;4.640;2023-08-30T01:18:17;7.90;;;3.95;;
20697;SDS011;10508;50.956;4.640;2023-08-30T01:20:45;11.00;;;3.65;;
20697;SDS011;10508;50.956;4.640;2023-08-30T01:26:04;15.50;;;4.18;;
20697;SDS011;10508;50.956;4.640;2023-08-30T01:28:33;9.10;;;3.55;;
20697;SDS011;10508;50.956;4.640;2023-08-30T01:31:01;9.80;;;3.10;;
20697;SDS011;10508;50.956;4.640;2023-08-30T01:33:30;5.03;;;3.17;;
20697;SDS011;10508;50.956;4.640;2023-08-30T01:35:59;8.00;;;3.70;;
20697;SDS011;10508;50.956;4.640;2023-08-30T01:38:26;6.13;;;3.17;;
20697;SDS011;10508;50.956;4.640;2023-08-30T01:40:53;5.55;;;3.20;;
20697;SDS011;10508;50.956;4.640;2023-08-30T01:43:20;5.88;;;3.30;;
20697;SDS011;10508;50.956;4.640;2023-08-30T01:45:46;6.22;;;3.83;;
20697;SDS011;10508;50.956;4.640;2023-08-30T01:48:16;5.18;;;2.90;;
20697;SDS011;10508;50.956;4.640;2023-08-30T01:50:42;9.48;;;3.22;;
20697;SDS011;10508;50.956;4.640;2023-08-30T01:53:12;4.97;;;3.17;;
20697;SDS011;10508;50.956;4.640;2023-08-30T01:55:38;5.78;;;3.47;;
20697;SDS011;10508;50.956;4.640;2023-08-30T01:58:05;9.68;;;3.70;;
20697;SDS011;10508;50.956;4.640;2023-08-30T02:00:32;5.40;;;3.20;;
20697;SDS011;10508;50.956;4.640;2023-08-30T02:02:58;4.95;;;2.80;;
20697;SDS011;10508;50.956;4.640;2023-08-30T02:05:24;9.82;;;3.20;;
20697;SDS011;10508;50.956;4.640;2023-08-30T02:08:13;9.07;;;3.58;;
20697;SDS011;10508;50.956;4.640;2023-08-30T02:10:37;9.20;;;2.83;;
20697;SDS011;10508;50.956;4.640;2023-08-30T02:13:06;7.85;;;3.28;;
20697;SDS011;10508;50.956;4.640;2023-08-30T02:15:33;3.67;;;2.42;;
20697;SDS011;10508;50.956;4.640;2023-08-30T02:17:59;5.22;;;3.00;;
20697;SDS011;10508;50.956;4.640;2023-08-30T02:20:25;5.82;;;3.15;;
20697;SDS011;10508;50.956;4.640;2023-08-30T02:22:51;5.50;;;3.22;;
20697;SDS011;10508;50.956;4.640;2023-08-30T02:25:19;14.18;;;3.83;;
20697;SDS011;10508;50.956;4.640;2023-08-30T02:27:49;6.82;;;3.50;;
20697;SDS011;10508;50.956;4.640;2023-08-30T02:30:16;5.15;;;2.90;;
20697;SDS011;10508;50.956;4.640;2023-08-30T02:32:43;5.72;;;3.15;;
20697;SDS011;10508;50.956;4.640;2023-08-30T02:35:10;6.75;;;3.28;;
20697;SDS011;10508;50.956;4.640;2023-08-30T02:37:37;10.48;;;4.82;;
20697;SDS011;10508;50.956;4.640;2023-08-30T02:40:07;8.13;;;3.97;;
20697;SDS011;10508;50.956;4.640;2023-08-30T02:42:34;7.50;;;3.60;;
20697;SDS011;10508;50.956;4.640;2023-08-30T02:45:01;12.52;;;3.55;;
20697;SDS011;10508;50.956;4.640;2023-08-30T02:47:28;5.47;;;3.15;;
20697;SDS011;10508;50.956;4.640;2023-08-30T02:49:56;6.40;;;3.00;;
20697;SDS011;10508;50.956;4.640;2023-08-30T02:52:23;6.95;;;3.53;;
20697;SDS011;10508;50.956;4.640;2023-08-30T02:54:50;6.93;;;3.28;;
20697;SDS011;10508;50.956;4.640;2023-08-30T02:57:17;6.97;;;3.75;;
20697;SDS011;10508;50.956;4.640;2023-08-30T02:59:44;6.05;;;3.70;;
20697;SDS011;10508;50.956;4.640;2023-08-30T03:02:12;12.75;;;4.57;;
20697;SDS011;10508;50.956;4.640;2023-08-30T03:04:39;8.90;;;4.90;;
20697;SDS011;10508;50.956;4.640;2023-08-30T03:07:06;7.47;;;4.20;;
20697;SDS011;10508;50.956;4.640;2023-08-30T03:09:33;10.48;;;4.65;;
20697;SDS011;10508;50.956;4.640;2023-08-30T03:12:00;6.15;;;3.75;;
20697;SDS011;10508;50.956;4.640;2023-08-30T03:14:28;7.32;;;3.63;;
20697;SDS011;10508;50.956;4.640;2023-08-30T03:16:55;7.45;;;3.92;;
20697;SDS011;10508;50.956;4.640;2023-08-30T03:19:22;7.72;;;3.80;;
20697;SDS011;10508;50.956;4.640;2023-08-30T03:21:49;15.13;;;4.50;;
20697;SDS011;10508;50.956;4.640;2023-08-30T03:24:16;9.65;;;4.20;;
20697;SDS011;10508;50.956;4.640;2023-08-30T03:26:44;9.25;;;4.30;;
20697;SDS011;10508;50.956;4.640;2023-08-30T03:29:11;9.15;;;4.57;;
20697;SDS011;10508;50.956;4.640;2023-08-30T03:31:40;9.38;;;5.20;;
20697;SDS011;10508;50.956;4.640;2023-08-30T03:34:08;10.63;;;5.13;;
20697;SDS011;10508;50.956;4.640;2023-08-30T03:36:37;7.55;;;4.75;;
20697;SDS011;10508;50.956;4.640;2023-08-30T03:39:04;12.35;;;5.20;;
20697;SDS011;10508;50.956;4.640;2023-08-30T03:41:33;6.85;;;4.10;;
20697;SDS011;10508;50.956;4.640;2023-08-30T03:44:02;8.07;;;4.45;;
20697;SDS011;10508;50.956;4.640;2023-08-30T03:46:31;9.48;;;5.10;;
20697;SDS011;10508;50.956;4.640;2023-08-30T03:49:00;18.27;;;6.63;;
20697;SDS011;10508;50.956;4.640;2023-08-30T03:51:29;16.77;;;5.93;;
20697;SDS011;10508;50.956;4.640;2023-08-30T03:53:57;12.30;;;4.70;;
20697;SDS011;10508;50.956;4.640;2023-08-30T03:56:26;9.38;;;4.68;;
20697;SDS011;10508;50.956;4.640;2023-08-30T03:58:55;14.15;;;5.22;;
20697;SDS011;10508;50.956;4.640;2023-08-30T04:01:24;17.75;;;5.85;;
20697;SDS011;10508;50.956;4.640;2023-08-30T04:03:53;11.43;;;5.07;;
20697;SDS011;10508;50.956;4.640;2023-08-30T04:06:21;10.75;;;5.53;;
20697;SDS011;10508;50.956;4.640;2023-08-30T04:08:50;14.93;;;6.00;;
20697;SDS011;10508;50.956;4.640;2023-08-30T04:11:19;11.60;;;5.65;;
20697;SDS011;10508;50.956;4.640;2023-08-30T04:13:48;13.60;;;6.15;;
20697;SDS011;10508;50.956;4.640;2023-08-30T04:16:18;15.02;;;5.30;;
20697;SDS011;10508;50.956;4.640;2023-08-30T04:18:47;10.60;;;4.95;;
20697;SDS011;10508;50.956;4.640;2023-08-30T04:21:16;10.55;;;5.00;;
20697;SDS011;10508;50.956;4.640;2023-08-30T04:23:45;14.10;;;5.78;;
20697;SDS011;10508;50.956;4.640;2023-08-30T04:26:14;11.25;;;5.32;;
20697;SDS011;10508;50.956;4.640;2023-08-30T04:28:43;11.80;;;5.32;;
20697;SDS011;10508;50.956;4.640;2023-08-30T04:31:12;9.02;;;4.65;;
20697;SDS011;10508;50.956;4.640;2023-08-30T04:33:41;12.45;;;4.88;;
20697;SDS011;10508;50.956;4.640;2023-08-30T04:36:10;14.10;;;6.20;;
20697;SDS011;10508;50.956;4.640;2023-08-30T04:38:38;11.18;;;5.30;;
20697;SDS011;10508;50.956;4.640;2023-08-30T04:41:07;8.27;;;5.07;;
20697;SDS011;10508;50.956;4.640;2023-08-30T04:43:36;12.40;;;5.63;;
20697;SDS011;10508;50.956;4.640;2023-08-30T04:46:05;8.82;;;5.18;;
20697;SDS011;10508;50.956;4.640;2023-08-30T04:48:34;13.45;;;5.68;;
20697;SDS011;10508;50.956;4.640;2023-08-30T04:51:04;9.73;;;4.38;;
20697;SDS011;10508;50.956;4.640;2023-08-30T04:53:33;11.40;;;4.95;;
20697;SDS011;10508;50.956;4.640;2023-08-30T04:56:09;11.60;;;5.53;;
20697;SDS011;10508;50.956;4.640;2023-08-30T04:58:39;11.23;;;4.93;;
20697;SDS011;10508;50.956;4.640;2023-08-30T05:01:08;11.43;;;5.50;;
20697;SDS011;10508;50.956;4.640;2023-08-30T05:03:38;11.27;;;4.70;;
20697;SDS011;10508;50.956;4.640;2023-08-30T05:06:08;8.38;;;4.72;;
20697;SDS011;10508;50.956;4.640;2023-08-30T05:08:41;12.45;;;5.13;;
20697;SDS011;10508;50.956;4.640;2023-08-30T05:11:10;15.30;;;5.15;;
20697;SDS011;10508;50.956;4.640;2023-08-30T05:13:39;8.45;;;4.10;;
20697;SDS011;10508;50.956;4.640;2023-08-30T05:16:08;9.98;;;4.90;;
20697;SDS011;10508;50.956;4.640;2023-08-30T05:18:37;10.77;;;4.95;;
20697;SDS011;10508;50.956;4.640;2023-08-30T05:21:05;10.13;;;4.32;;
20697;SDS011;10508;50.956;4.640;2023-08-30T05:23:34;9.00;;;4.18;;
20697;SDS011;10508;50.956;4.640;2023-08-30T05:26:06;8.75;;;4.45;;
20697;SDS011;10508;50.956;4.640;2023-08-30T05:28:37;11.55;;;4.50;;
20697;SDS011;10508;50.956;4.640;2023-08-30T05:31:07;11.73;;;5.22;;
20697;SDS011;10508;50.956;4.640;2023-08-30T05:33:36;9.32;;;4.38;;
20697;SDS011;10508;50.956;4.640;2023-08-30T05:36:04;14.50;;;5.20;;
20697;SDS011;10508;50.956;4.640;2023-08-30T05:38:33;9.98;;;4.15;;
20697;SDS011;10508;50.956;4.640;2023-08-30T05:41:03;10.43;;;4.65;;
20697;SDS011;10508;50.956;4.640;2023-08-30T05:43:31;9.10;;;4.00;;
20697;SDS011;10508;50.956;4.640;2023-08-30T05:46:19;9.40;;;4.55;;
20697;SDS011;10508;50.956;4.640;2023-08-30T05:48:47;12.05;;;5.72;;
20697;SDS011;10508;50.956;4.640;2023-08-30T05:51:14;6.82;;;4.05;;
20697;SDS011;10508;50.956;4.640;2023-08-30T05:53:45;9.70;;;3.78;;
20697;SDS011;10508;50.956;4.640;2023-08-30T05:56:12;7.85;;;4.05;;
20697;SDS011;10508;50.956;4.640;2023-08-30T05:58:40;8.05;;;3.40;;
20697;SDS011;10508;50.956;4.640;2023-08-30T06:01:08;8.93;;;3.38;;
20697;SDS011;10508;50.956;4.640;2023-08-30T06:03:34;8.27;;;3.75;;
20697;SDS011;10508;50.956;4.640;2023-08-30T06:06:00;6.30;;;3.08;;
20697;SDS011;10508;50.956;4.640;2023-08-30T06:08:26;8.82;;;3.28;;
20697;SDS011;10508;50.956;4.640;2023-08-30T06:10:52;12.40;;;4.07;;
20697;SDS011;10508;50.956;4.640;2023-08-30T06:13:18;7.60;;;3.95;;
20697;SDS011;10508;50.956;4.640;2023-08-30T06:15:44;6.85;;;3.70;;
20697;SDS011;10508;50.956;4.640;2023-08-30T06:18:10;7.80;;;3.20;;
20697;SDS011;10508;50.956;4.640;2023-08-30T06:20:39;7.65;;;3.70;;
20697;SDS011;10508;50.956;4.640;2023-08-30T06:23:06;8.68;;;3.47;;
20697;SDS011;10508;50.956;4.640;2023-08-30T06:25:32;5.38;;;2.90;;
20697;SDS011;10508;50.956;4.640;2023-08-30T06:27:59;7.70;;;3.03;;
20697;SDS011;10508;50.956;4.640;2023-08-30T06:30:26;6.68;;;3.22;;
20697;SDS011;10508;50.956;4.640;2023-08-30T06:32:53;4.70;;;3.00;;
20697;SDS011;10508;50.956;4.640;2023-08-30T06:35:19;7.22;;;2.90;;
20697;SDS011;10508;50.956;4.640;2023-08-30T06:37:45;6.38;;;3.00;;
20697;SDS011;10508;50.956;4.640;2023-08-30T06:40:11;5.72;;;3.03;;
20697;SDS011;10508;50.956;4.640;2023-08-30T06:42:37;5.97;;;2.60;;
20697;SDS011;10508;50.956;4.640;2023-08-30T06:45:03;6.60;;;2.90;;
20697;SDS011;10508;50.956;4.640;2023-08-30T06:47:29;6.97;;;2.90;;
20697;SDS011;10508;50.956;4.640;2023-08-30T06:49:56;5.80;;;2.50;;
20697;SDS011;10508;50.956;4.640;2023-08-30T06:52:22;11.15;;;3.47;;
20697;SDS011;10508;50.956;4.640;2023-08-30T06:54:48;4.80;;;3.13;;
20697;SDS011;10508;50.956;4.640;2023-08-30T06:57:14;9.13;;;2.97;;
20697;SDS011;10508;50.956;4.640;2023-08-30T06:59:40;6.63;;;3.05;;
20697;SDS011;10508;50.956;4.640;2023-08-30T07:02:08;6.82;;;3.20;;
20697;SDS011;10508;50.956;4.640;2023-08-30T07:04:36;3.85;;;2.60;;
20697;SDS011;10508;50.956;4.640;2023-08-30T07:07:03;6.65;;;3.00;;
20697;SDS011;10508;50.956;4.640;2023-08-30T07:09:31;5.20;;;3.10;;
20697;SDS011;10508;50.956;4.640;2023-08-30T07:11:59;4.93;;;3.35;;
20697;SDS011;10508;50.956;4.640;2023-08-30T07:14:26;5.28;;;3.00;;
20697;SDS011;10508;50.956;4.640;2023-08-30T07:16:53;5.82;;;3.03;;
20697;SDS011;10508;50.956;4.640;2023-08-30T07:19:20;5.88;;;4.03;;
20697;SDS011;10508;50.956;4.640;2023-08-30T07:21:47;6.20;;;3.20;;
20697;SDS011;10508;50.956;4.640;2023-08-30T07:24:14;9.27;;;3.42;;
20697;SDS011;10508;50.956;4.640;2023-08-30T07:26:41;7.03;;;3.83;;
20697;SDS011;10508;50.956;4.640;2023-08-30T07:29:08;7.93;;;3.60;;
20697;SDS011;10508;50.956;4.640;2023-08-30T07:31:35;5.45;;;3.30;;
20697;SDS011;10508;50.956;4.640;2023-08-30T07:34:02;5.93;;;3.80;;
20697;SDS011;10508;50.956;4.640;2023-08-30T07:36:30;6.18;;;3.33;;
20697;SDS011;10508;50.956;4.640;2023-08-30T07:38:57;7.20;;;3.42;;
20697;SDS011;10508;50.956;4.640;2023-08-30T07:41:24;7.30;;;3.40;;
20697;SDS011;10508;50.956;4.640;2023-08-30T07:43:51;9.48;;;3.60;;
20697;SDS011;10508;50.956;4.640;2023-08-30T07:46:18;6.63;;;3.28;;
20697;SDS011;10508;50.956;4.640;2023-08-30T07:48:46;9.45;;;3.78;;
20697;SDS011;10508;50.956;4.640;2023-08-30T07:51:13;4.80;;;3.10;;
20697;SDS011;10508;50.956;4.640;2023-08-30T07:53:40;7.38;;;2.80;;
20697;SDS011;10508;50.956;4.640;2023-08-30T07:56:07;7.13;;;3.30;;
20697;SDS011;10508;50.956;4.640;2023-08-30T07:58:34;7.25;;;3.03;;
20697;SDS011;10508;50.956;4.640;2023-08-30T08:01:01;6.53;;;3.13;;
20697;SDS011;10508;50.956;4.640;2023-08-30T08:03:28;4.95;;;2.78;;
20697;SDS011;10508;50.956;4.640;2023-08-30T08:05:57;4.25;;;2.60;;
20697;SDS011;10508;50.956;4.640;2023-08-30T08:08:27;6.30;;;2.53;;
20697;SDS011;10508;50.956;4.640;2023-08-30T08:10:54;4.70;;;2.58;;
20697;SDS011;10508;50.956;4.640;2023-08-30T08:13:22;4.93;;;2.17;;
20697;SDS011;10508;50.956;4.640;2023-08-30T08:15:49;4.63;;;2.97;;
20697;SDS011;10508;50.956;4.640;2023-08-30T08:18:16;4.93;;;2.40;;
20697;SDS011;10508;50.956;4.640;2023-08-30T08:20:43;3.58;;;2.20;;
20697;SDS011;10508;50.956;4.640;2023-08-30T08:23:10;4.28;;;1.58;;
20697;SDS011;10508;50.956;4.640;2023-08-30T08:25:37;4.88;;;2.13;;
20697;SDS011;10508;50.956;4.640;2023-08-30T08:28:04;4.53;;;1.95;;
20697;SDS011;10508;50.956;4.640;2023-08-30T08:30:31;2.83;;;2.00;;
20697;SDS011;10508;50.956;4.640;2023-08-30T08:32:59;5.53;;;2.08;;
20697;SDS011;10508;50.956;4.640;2023-08-30T08:35:26;2.95;;;1.90;;
20697;SDS011;10508;50.956;4.640;2023-08-30T08:37:53;4.28;;;2.45;;
20697;SDS011;10508;50.956;4.640;2023-08-30T08:40:21;4.63;;;1.90;;
20697;SDS011;10508;50.956;4.640;2023-08-30T08:42:48;2.05;;;1.52;;
20697;SDS011;10508;50.956;4.640;2023-08-30T08:45:16;5.05;;;1.85;;
20697;SDS011;10508;50.956;4.640;2023-08-30T08:47:45;5.60;;;2.28;;
20697;SDS011;10508;50.956;4.640;2023-08-30T08:50:13;2.90;;;1.60;;
20697;SDS011;10508;50.956;4.640;2023-08-30T08:52:40;5.18;;;1.70;;
20697;SDS011;10508;50.956;4.640;2023-08-30T08:55:07;2.45;;;1.80;;
20697;SDS011;10508;50.956;4.640;2023-08-30T08:57:35;3.75;;;2.33;;
20697;SDS011;10508;50.956;4.640;2023-08-30T09:00:03;2.20;;;1.75;;
20697;SDS011;10508;50.956;4.640;2023-08-30T09:02:31;2.67;;;1.80;;
20697;SDS011;10508;50.956;4.640;2023-08-30T09:04:58;2.90;;;1.92;;
20697;SDS011;10508;50.956;4.640;2023-08-30T09:07:27;6.03;;;2.38;;
20697;SDS011;10508;50.956;4.640;2023-08-30T09:09:56;3.08;;;2.10;;
20697;SDS011;10508;50.956;4.640;2023-08-30T09:12:25;4.28;;;1.95;;
20697;SDS011;10508;50.956;4.640;2023-08-30T09:14:57;4.20;;;1.73;;
20697;SDS011;10508;50.956;4.640;2023-08-30T09:17:38;5.43;;;2.40;;
20697;SDS011;10508;50.956;4.640;2023-08-30T09:20:08;6.43;;;2.58;;
20697;SDS011;10508;50.956;4.640;2023-08-30T09:22:38;4.30;;;2.30;;
20697;SDS011;10508;50.956;4.640;2023-08-30T09:25:10;5.68;;;2.53;;
20697;SDS011;10508;50.956;4.640;2023-08-30T09:27:40;3.50;;;2.45;;
20697;SDS011;10508;50.956;4.640;2023-08-30T09:30:09;5.47;;;2.95;;
20697;SDS011;10508;50.956;4.640;2023-08-30T09:32:41;5.72;;;2.83;;
20697;SDS011;10508;50.956;4.640;2023-08-30T09:35:10;4.97;;;3.10;;
20697;SDS011;10508;50.956;4.640;2023-08-30T09:37:39;5.82;;;2.88;;
20697;SDS011;10508;50.956;4.640;2023-08-30T09:40:08;4.55;;;2.80;;
20697;SDS011;10508;50.956;4.640;2023-08-30T09:42:40;4.75;;;3.00;;
20697;SDS011;10508;50.956;4.640;2023-08-30T09:45:19;5.30;;;2.97;;
20697;SDS011;10508;50.956;4.640;2023-08-30T09:47:48;6.72;;;3.83;;
20697;SDS011;10508;50.956;4.640;2023-08-30T09:50:17;8.98;;;3.90;;
20697;SDS011;10508;50.956;4.640;2023-08-30T09:52:48;6.10;;;3.63;;
20697;SDS011;10508;50.956;4.640;2023-08-30T09:55:18;6.32;;;3.40;;
20697;SDS011;10508;50.956;4.640;2023-08-30T09:57:45;5.88;;;3.50;;
20697;SDS011;10508;50.956;4.640;2023-08-30T10:00:14;5.35;;;3.50;;
20697;SDS011;10508;50.956;4.640;2023-08-30T10:02:43;9.43;;;4.68;;
20697;SDS011;10508;50.956;4.640;2023-08-30T10:05:11;8.50;;;3.95;;
20697;SDS011;10508;50.956;4.640;2023-08-30T10:07:40;5.05;;;3.40;;
20697;SDS011;10508;50.956;4.640;2023-08-30T10:10:09;7.88;;;3.75;;
20697;SDS011;10508;50.956;4.640;2023-08-30T10:12:38;7.07;;;4.03;;
20697;SDS011;10508;50.956;4.640;2023-08-30T10:15:06;5.00;;;3.42;;
20697;SDS011;10508;50.956;4.640;2023-08-30T10:17:35;6.45;;;3.33;;
20697;SDS011;10508;50.956;4.640;2023-08-30T10:20:06;9.80;;;3.35;;
20697;SDS011;10508;50.956;4.640;2023-08-30T10:22:35;6.03;;;3.20;;
20697;SDS011;10508;50.956;4.640;2023-08-30T10:25:04;6.18;;;3.25;;
20697;SDS011;10508;50.956;4.640;2023-08-30T10:27:33;7.18;;;3.70;;
20697;SDS011;10508;50.956;4.640;2023-08-30T10:30:03;10.48;;;4.35;;
20697;SDS011;10508;50.956;4.640;2023-08-30T10:32:32;11.43;;;4.82;;
20697;SDS011;10508;50.956;4.640;2023-08-30T10:35:01;7.75;;;3.90;;
20697;SDS011;10508;50.956;4.640;2023-08-30T10:37:29;7.40;;;4.18;;
20697;SDS011;10508;50.956;4.640;2023-08-30T10:40:00;11.43;;;4.25;;
20697;SDS011;10508;50.956;4.640;2023-08-30T10:42:28;6.50;;;3.40;;
20697;SDS011;10508;50.956;4.640;2023-08-30T10:44:57;10.23;;;4.10;;
20697;SDS011;10508;50.956;4.640;2023-08-30T10:47:26;10.23;;;3.97;;
20697;SDS011;10508;50.956;4.640;2023-08-30T10:49:55;9.05;;;5.10;;
20697;SDS011;10508;50.956;4.640;2023-08-30T10:52:23;6.47;;;4.10;;
20697;SDS011;10508;50.956;4.640;2023-08-30T10:54:51;11.45;;;3.92;;
20697;SDS011;10508;50.956;4.640;2023-08-30T10:57:19;8.48;;;3.65;;
20697;SDS011;10508;50.956;4.640;2023-08-30T11:00:03;9.18;;;4.35;;
20697;SDS011;10508;50.956;4.640;2023-08-30T11:02:33;6.28;;;3.95;;
20697;SDS011;10508;50.956;4.640;2023-08-30T11:05:01;7.03;;;3.72;;
20697;SDS011;10508;50.956;4.640;2023-08-30T11:07:29;10.75;;;3.45;;
20697;SDS011;10508;50.956;4.640;2023-08-30T11:09:57;6.45;;;3.55;;
20697;SDS011;10508;50.956;4.640;2023-08-30T11:12:24;8.48;;;3.63;;
20697;SDS011;10508;50.956;4.640;2023-08-30T11:14:54;6.25;;;3.78;;
20697;SDS011;10508;50.956;4.640;2023-08-30T11:17:22;7.18;;;3.70;;
20697;SDS011;10508;50.956;4.640;2023-08-30T11:19:50;7.35;;;3.38;;
20697;SDS011;10508;50.956;4.640;2023-08-30T11:22:18;7.57;;;3.92;;
20697;SDS011;10508;50.956;4.640;2023-08-30T11:24:47;10.23;;;3.63;;
20697;SDS011;10508;50.956;4.640;2023-08-30T11:27:18;6.60;;;4.35;;
20697;SDS011;10508;50.956;4.640;2023-08-30T11:29:45;6.97;;;4.25;;
20697;SDS011;10508;50.956;4.640;2023-08-30T11:32:12;11.38;;;4.80;;
20697;SDS011;10508;50.956;4.640;2023-08-30T11:34:39;8.38;;;4.15;;
20697;SDS011;10508;50.956;4.640;2023-08-30T11:37:06;9.02;;;4.32;;
20697;SDS011;10508;50.956;4.640;2023-08-30T11:39:34;6.95;;;4.03;;
20697;SDS011;10508;50.956;4.640;2023-08-30T11:42:02;10.75;;;4.03;;
20697;SDS011;10508;50.956;4.640;2023-08-30T11:44:31;8.45;;;4.20;;
20697;SDS011;10508;50.956;4.640;2023-08-30T11:46:59;6.90;;;3.75;;
20697;SDS011;10508;50.956;4.640;2023-08-30T11:49:27;7.20;;;3.30;;
20697;SDS011;10508;50.956;4.640;2023-08-30T11:51:54;6.35;;;3.00;;
20697;SDS011;10508;50.956;4.640;2023-08-30T11:54:23;9.20;;;3.25;;
20697;SDS011;10508;50.956;4.640;2023-08-30T11:56:51;9.85;;;2.90;;
20697;SDS011;10508;50.956;4.640;2023-08-30T11:59:22;6.43;;;2.92;;
20697;SDS011;10508;50.956;4.640;2023-08-30T12:01:48;5.10;;;1.90;;
20697;SDS011;10508;50.956;4.640;2023-08-30T12:04:14;7.85;;;1.73;;
20697;SDS011;10508;50.956;4.640;2023-08-30T12:06:40;4.10;;;1.80;;
20697;SDS011;10508;50.956;4.640;2023-08-30T12:09:11;4.53;;;1.65;;
20697;SDS011;10508;50.956;4.640;2023-08-30T12:11:37;10.52;;;1.83;;
20697;SDS011;10508;50.956;4.640;2023-08-30T12:14:03;3.92;;;1.45;;
20697;SDS011;10508;50.956;4.640;2023-08-30T12:16:30;6.05;;;2.10;;
20697;SDS011;10508;50.956;4.640;2023-08-30T12:18:56;4.85;;;2.10;;
20697;SDS011;10508;50.956;4.640;2023-08-30T12:21:38;8.23;;;2.10;;
20697;SDS011;10508;50.956;4.640;2023-08-30T12:24:05;6.47;;;1.83;;
20697;SDS011;10508;50.956;4.640;2023-08-30T12:26:32;5.32;;;1.80;;
20697;SDS011;10508;50.956;4.640;2023-08-30T12:28:59;7.75;;;1.50;;
20697;SDS011;10508;50.956;4.640;2023-08-30T12:31:27;7.50;;;1.63;;
20697;SDS011;10508;50.956;4.640;2023-08-30T12:33:54;5.78;;;1.42;;
20697;SDS011;10508;50.956;4.640;2023-08-30T12:36:21;7.55;;;1.48;;
20697;SDS011;10508;50.956;4.640;2023-08-30T12:38:48;10.88;;;1.77;;
20697;SDS011;10508;50.956;4.640;2023-08-30T12:41:15;8.35;;;1.52;;
20697;SDS011;10508;50.956;4.640;2023-08-30T12:43:42;7.78;;;2.00;;
20697;SDS011;10508;50.956;4.640;2023-08-30T12:46:09;8.90;;;1.40;;
20697;SDS011;10508;50.956;4.640;2023-08-30T12:48:37;4.93;;;1.50;;
20697;SDS011;10508;50.956;4.640;2023-08-30T12:51:04;6.93;;;1.58;;
20697;SDS011;10508;50.956;4.640;2023-08-30T12:53:31;6.63;;;1.58;;
20697;SDS011;10508;50.956;4.640;2023-08-30T12:55:58;5.95;;;1.50;;
20697;SDS011;10508;50.956;4.640;2023-08-30T12:58:24;7.25;;;1.50;;
20697;SDS011;10508;50.956;4.640;2023-08-30T13:00:50;7.03;;;2.10;;
20697;SDS011;10508;50.956;4.640;2023-08-30T13:03:18;3.08;;;1.15;;
20697;SDS011;10508;50.956;4.640;2023-08-30T13:05:46;4.22;;;1.63;;
20697;SDS011;10508;50.956;4.640;2023-08-30T13:08:12;5.32;;;1.60;;
20697;SDS011;10508;50.956;4.640;2023-08-30T13:10:39;8.27;;;1.35;;
20697;SDS011;10508;50.956;4.640;2023-08-30T13:13:06;5.55;;;1.85;;
20697;SDS011;10508;50.956;4.640;2023-08-30T13:15:33;4.07;;;1.30;;
20697;SDS011;10508;50.956;4.640;2023-08-30T13:18:00;6.85;;;1.63;;
20697;SDS011;10508;50.956;4.640;2023-08-30T13:20:27;8.00;;;1.40;;
20697;SDS011;10508;50.956;4.640;2023-08-30T13:22:54;6.47;;;1.40;;
20697;SDS011;10508;50.956;4.640;2023-08-30T13:25:21;11.25;;;1.70;;
20697;SDS011;10508;50.956;4.640;2023-08-30T13:27:48;7.45;;;1.48;;
20697;SDS011;10508;50.956;4.640;2023-08-30T13:30:15;14.40;;;1.63;;
20697;SDS011;10508;50.956;4.640;2023-08-30T13:32:42;6.38;;;1.40;;
20697;SDS011;10508;50.956;4.640;2023-08-30T13:35:09;4.80;;;1.33;;
20697;SDS011;10508;50.956;4.640;2023-08-30T13:37:37;4.38;;;1.63;;
20697;SDS011;10508;50.956;4.640;2023-08-30T13:40:04;8.50;;;1.58;;
20697;SDS011;10508;50.956;4.640;2023-08-30T13:42:32;4.22;;;1.35;;
20697;SDS011;10508;50.956;4.640;2023-08-30T13:44:59;3.72;;;1.05;;
20697;SDS011;10508;50.956;4.640;2023-08-30T13:47:26;3.47;;;1.33;;
20697;SDS011;10508;50.956;4.640;2023-08-30T13:49:53;3.95;;;1.10;;
20697;SDS011;10508;50.956;4.640;2023-08-30T13:52:21;3.92;;;1.10;;
20697;SDS011;10508;50.956;4.640;2023-08-30T13:54:48;4.75;;;1.15;;
20697;SDS011;10508;50.956;4.640;2023-08-30T13:57:16;4.43;;;1.08;;
20697;SDS011;10508;50.956;4.640;2023-08-30T13:59:44;5.70;;;1.45;;
20697;SDS011;10508;50.956;4.640;2023-08-30T14:02:11;5.72;;;1.10;;
20697;SDS011;10508;50.956;4.640;2023-08-30T14:04:38;5.60;;;1.25;;
20697;SDS011;10508;50.956;4.640;2023-08-30T14:07:05;2.47;;;0.98;;
20697;SDS011;10508;50.956;4.640;2023-08-30T14:09:32;7.47;;;1.30;;
20697;SDS011;10508;50.956;4.640;2023-08-30T14:12:00;4.38;;;1.30;;
20697;SDS011;10508;50.956;4.640;2023-08-30T14:14:29;5.03;;;1.08;;
20697;SDS011;10508;50.956;4.640;2023-08-30T14:16:56;5.97;;;1.65;;
20697;SDS011;10508;50.956;4.640;2023-08-30T14:19:22;7.30;;;1.10;;
20697;SDS011;10508;50.956;4.640;2023-08-30T14:21:50;8.02;;;1.15;;
20697;SDS011;10508;50.956;4.640;2023-08-30T14:24:19;2.22;;;1.10;;
20697;SDS011;10508;50.956;4.640;2023-08-30T14:26:46;8.18;;;1.45;;
20697;SDS011;10508;50.956;4.640;2023-08-30T14:29:13;4.20;;;1.15;;
20697;SDS011;10508;50.956;4.640;2023-08-30T14:31:40;4.97;;;0.98;;
20697;SDS011;10508;50.956;4.640;2023-08-30T14:34:07;7.97;;;1.30;;
20697;SDS011;10508;50.956;4.640;2023-08-30T14:36:34;8.68;;;2.10;;
20697;SDS011;10508;50.956;4.640;2023-08-30T14:39:01;7.07;;;1.33;;
20697;SDS011;10508;50.956;4.640;2023-08-30T14:41:28;3.42;;;0.80;;
20697;SDS011;10508;50.956;4.640;2023-08-30T14:43:57;2.88;;;1.08;;
20697;SDS011;10508;50.956;4.640;2023-08-30T14:46:24;4.32;;;1.05;;
20697;SDS011;10508;50.956;4.640;2023-08-30T14:48:51;6.97;;;1.15;;
20697;SDS011;10508;50.956;4.640;2023-08-30T14:51:18;7.50;;;0.95;;
20697;SDS011;10508;50.956;4.640;2023-08-30T14:53:45;3.95;;;0.93;;
20697;SDS011;10508;50.956;4.640;2023-08-30T14:56:12;3.67;;;1.17;;